NCAR-RAP Real-Time Weather Data

Output produced by METARs form (14 October 2019  22:37 UTC)
found at http://weather.rap.ucar.edu/surface/
 
KORL 142153Z 08011KT 10SM CLR 29/18 A3004 RMK AO2 SLP174 T02890183
KORL 142053Z 08009KT 10SM FEW050 30/18 A3003 RMK AO2 SLP170 T03000178 55006
KORL 141953Z AUTO 05008KT 10SM SCT055 31/18 A3002 RMK AO2 SLP168 T03110178
KORL 141853Z VRB06KT 10SM SCT048 31/17 A3002 RMK AO2 SLP169 T03110172
KORL 141753Z 03006KT 10SM FEW048 30/17 A3005 RMK AO2 SLP177 T03000167 10311 20233 58016
KORL 141653Z 02007KT 10SM FEW046 31/17 A3007 RMK AO2 SLP185 T03060167
KORL 141553Z 06005KT 10SM CLR 29/18 A3009 RMK AO2 SLP190 T02890178
KORL 141453Z 00000KT 10SM CLR 29/19 A3009 RMK AO2 SLP193 T02890189 51010
KORL 141353Z 00000KT 10SM CLR 27/21 A3009 RMK AO2 SLP192 T02720211
KORL 141253Z 00000KT 10SM CLR 25/21 A3008 RMK AO2 SLP187 T02500211
KORL 141153Z 00000KT 10SM CLR 23/21 A3007 RMK AO2 SLP184 T02330206 10233 20217 53012
KORL 141053Z 00000KT 10SM CLR 22/21 A3005 RMK AO2 SLP178 T02220206
KORL 140953Z AUTO 00000KT 10SM CLR 22/20 A3004 RMK AO2 SLP176 T02170200
KORL 140853Z AUTO 00000KT 10SM CLR 22/20 A3003 RMK AO2 SLP171 T02220200 56008
KORL 140753Z AUTO 00000KT 10SM CLR 23/21 A3003 RMK AO2 SLP171 T02280206
KORL 140653Z AUTO 00000KT 10SM CLR 22/21 A3004 RMK AO2 SLP175 T02220206
KORL 140553Z AUTO 00000KT 10SM CLR 22/20 A3005 RMK AO2 SLP179 T02220200 10250 20222 58002
KORL 140453Z AUTO 10003KT 10SM CLR 23/21 A3007 RMK AO2 SLP184 T02280206 403110200
KORL 140353Z AUTO 10004KT 10SM CLR 23/20 A3007 RMK AO2 SLP185 T02280200
KORL 140253Z AUTO 10004KT 10SM CLR 23/20 A3006 RMK AO2 SLP182 T02330200 51007
KORL 140153Z AUTO 10005KT 10SM CLR 24/20 A3006 RMK AO2 SLP182 T02390200
KORL 140053Z 08006KT 10SM CLR 24/20 A3005 RMK AO2 SLP180 T02440200
KORL 132353Z 08006KT 10SM CLR 25/19 A3004 RMK AO2 SLP174 T02500189 10311 20250 53011
KORL 132253Z 07008KT 10SM CLR 27/19 A3002 RMK AO2 SLP168 T02670189
KORL 132153Z 08009KT 10SM BKN060 28/18 A3001 RMK AO2 SLP165 T02830178
KORL 132053Z AUTO 10004KT 10SM BKN055 30/16 A3001 RMK AO2 SLP163 T03000156 56011
KORL 131953Z 36004KT 10SM CLR 31/15 A3001 RMK AO2 SLP165 T03060150
KORL 131853Z 00000KT 10SM CLR 29/16 A3002 RMK AO2 SLP168 T02940156
KORL 131753Z 00000KT 10SM CLR 29/16 A3004 RMK AO2 SLP174 T02940156 10300 20206 58012
KORL 131653Z VRB04KT 10SM CLR 29/16 A3006 RMK AO2 SLP182 T02890161
KORL 131553Z 09006KT 10SM CLR 28/16 A3007 RMK AO2 SLP184 T02830161
KORL 131453Z VRB05KT 10SM CLR 28/18 A3007 RMK AO2 SLP186 T02780178 51006
KORL 131353Z 08005KT 10SM CLR 26/19 A3007 RMK AO2 SLP185 T02560189
KORL 131253Z 08003KT 10SM CLR 24/19 A3006 RMK AO2 SLP183 T02390194
KORL 131153Z 00000KT 10SM CLR 21/19 A3005 RMK AO2 SLP180 T02060189 10228 20200 51014
KORL 131053Z AUTO 00000KT 10SM CLR 21/19 A3004 RMK AO2 SLP176 T02110189
KORL 130953Z AUTO 00000KT 10SM CLR 23/19 A3003 RMK AO2 SLP172 T02280189
KORL 130853Z 00000KT 10SM CLR 21/19 A3001 RMK AO2 SLP166 T02110189 56008
KORL 130753Z 00000KT 10SM CLR 21/18 A3002 RMK AO2 SLP169 T02060183
KORL 130653Z 06004KT 10SM CLR 21/19 A3003 RMK AO2 SLP170 T02110189
KORL 130553Z 12003KT 10SM CLR 21/19 A3004 RMK AO2 SLP174 T02110189 10250 20211 57006
KORL 130453Z 10004KT 10SM CLR 22/19 A3004 RMK AO2 SLP176 T02170189 403060206
KORL 130353Z 09004KT 10SM CLR 22/19 A3005 RMK AO2 SLP178 T02220189
KORL 130253Z 10004KT 10SM CLR 23/19 A3005 RMK AO2 SLP180 T02280194 51009
KORL 130153Z 10006KT 10SM CLR 23/19 A3005 RMK AO2 SLP179 T02330194
KORL 130053Z 11008KT 10SM FEW060 24/19 A3004 RMK AO2 SLP176 T02390194
KORL 122353Z AUTO 11009KT 10SM CLR 25/19 A3003 RMK AO2 SLP171 T02500194 10306 20250 53015
KORL 122253Z AUTO 10010KT 10SM BKN050 27/19 A3001 RMK AO2 SLP164 T02670189